sensor_id;sensor_type;location;lat;lon;timestamp;P1;durP1;ratioP1;P2;durP2;ratioP2
76306;SDS011;65117;44.120;3.068;2023-10-13T00:02:10;5.97;;;2.60;;
76306;SDS011;65117;44.120;3.068;2023-10-13T00:04:36;2.22;;;2.00;;
76306;SDS011;65117;44.120;3.068;2023-10-13T00:07:02;3.15;;;2.45;;
76306;SDS011;65117;44.120;3.068;2023-10-13T00:09:29;3.55;;;2.50;;
76306;SDS011;65117;44.120;3.068;2023-10-13T00:11:58;3.22;;;2.25;;
76306;SDS011;65117;44.120;3.068;2023-10-13T00:14:24;4.63;;;2.78;;
76306;SDS011;65117;44.120;3.068;2023-10-13T00:17:02;5.13;;;3.35;;
76306;SDS011;65117;44.120;3.068;2023-10-13T00:19:32;4.22;;;2.60;;
76306;SDS011;65117;44.120;3.068;2023-10-13T00:22:04;4.15;;;2.63;;
76306;SDS011;65117;44.120;3.068;2023-10-13T00:24:34;3.15;;;2.70;;
76306;SDS011;65117;44.120;3.068;2023-10-13T00:27:07;3.03;;;2.50;;
76306;SDS011;65117;44.120;3.068;2023-10-13T00:29:36;2.97;;;2.35;;
76306;SDS011;65117;44.120;3.068;2023-10-13T00:32:02;3.28;;;2.47;;
76306;SDS011;65117;44.120;3.068;2023-10-13T00:34:29;2.97;;;2.05;;
76306;SDS011;65117;44.120;3.068;2023-10-13T00:36:57;3.55;;;2.60;;
76306;SDS011;65117;44.120;3.068;2023-10-13T00:39:38;2.50;;;2.10;;
76306;SDS011;65117;44.120;3.068;2023-10-13T00:42:11;3.05;;;2.47;;
76306;SDS011;65117;44.120;3.068;2023-10-13T00:44:45;4.35;;;2.30;;
76306;SDS011;65117;44.120;3.068;2023-10-13T00:47:15;3.22;;;2.45;;
76306;SDS011;65117;44.120;3.068;2023-10-13T00:49:57;4.15;;;2.40;;
76306;SDS011;65117;44.120;3.068;2023-10-13T00:52:23;2.55;;;2.35;;
76306;SDS011;65117;44.120;3.068;2023-10-13T00:54:49;3.55;;;2.30;;
76306;SDS011;65117;44.120;3.068;2023-10-13T00:57:15;4.55;;;2.15;;
76306;SDS011;65117;44.120;3.068;2023-10-13T00:59:56;3.00;;;2.42;;
76306;SDS011;65117;44.120;3.068;2023-10-13T01:02:37;3.15;;;2.40;;
76306;SDS011;65117;44.120;3.068;2023-10-13T01:05:05;3.55;;;2.60;;
76306;SDS011;65117;44.120;3.068;2023-10-13T01:07:45;4.50;;;2.58;;
76306;SDS011;65117;44.120;3.068;2023-10-13T01:10:15;3.10;;;2.22;;
76306;SDS011;65117;44.120;3.068;2023-10-13T01:12:41;3.63;;;2.80;;
76306;SDS011;65117;44.120;3.068;2023-10-13T01:15:09;2.30;;;2.10;;
76306;SDS011;65117;44.120;3.068;2023-10-13T01:17:36;3.50;;;2.22;;
76306;SDS011;65117;44.120;3.068;2023-10-13T01:20:02;3.05;;;2.75;;
76306;SDS011;65117;44.120;3.068;2023-10-13T01:22:30;2.33;;;2.13;;
76306;SDS011;65117;44.120;3.068;2023-10-13T01:24:57;2.30;;;2.10;;
76306;SDS011;65117;44.120;3.068;2023-10-13T01:27:34;3.67;;;2.55;;
76306;SDS011;65117;44.120;3.068;2023-10-13T01:30:03;3.10;;;2.38;;
76306;SDS011;65117;44.120;3.068;2023-10-13T01:32:35;2.72;;;2.00;;
76306;SDS011;65117;44.120;3.068;2023-10-13T01:35:06;2.78;;;2.35;;
76306;SDS011;65117;44.120;3.068;2023-10-13T01:37:32;2.97;;;2.35;;
76306;SDS011;65117;44.120;3.068;2023-10-13T01:39:58;4.68;;;2.17;;
76306;SDS011;65117;44.120;3.068;2023-10-13T01:42:23;2.30;;;2.08;;
76306;SDS011;65117;44.120;3.068;2023-10-13T01:44:50;3.40;;;2.28;;
76306;SDS011;65117;44.120;3.068;2023-10-13T01:47:15;2.60;;;2.40;;
76306;SDS011;65117;44.120;3.068;2023-10-13T01:49:41;3.55;;;2.60;;
76306;SDS011;65117;44.120;3.068;2023-10-13T01:52:08;3.13;;;2.67;;
76306;SDS011;65117;44.120;3.068;2023-10-13T01:54:40;2.83;;;2.30;;
76306;SDS011;65117;44.120;3.068;2023-10-13T01:57:09;2.40;;;2.20;;
76306;SDS011;65117;44.120;3.068;2023-10-13T01:59:39;3.03;;;2.45;;
76306;SDS011;65117;44.120;3.068;2023-10-13T02:02:09;2.97;;;2.35;;
76306;SDS011;65117;44.120;3.068;2023-10-13T02:04:38;4.40;;;1.98;;
76306;SDS011;65117;44.120;3.068;2023-10-13T02:07:07;2.80;;;2.15;;
76306;SDS011;65117;44.120;3.068;2023-10-13T02:09:33;2.47;;;2.20;;
76306;SDS011;65117;44.120;3.068;2023-10-13T02:12:02;2.50;;;2.30;;
76306;SDS011;65117;44.120;3.068;2023-10-13T02:14:27;2.65;;;2.15;;
76306;SDS011;65117;44.120;3.068;2023-10-13T02:16:53;2.25;;;2.05;;
76306;SDS011;65117;44.120;3.068;2023-10-13T02:19:36;2.78;;;2.17;;
76306;SDS011;65117;44.120;3.068;2023-10-13T02:22:05;3.10;;;2.20;;
76306;SDS011;65117;44.120;3.068;2023-10-13T02:24:33;2.38;;;2.17;;
76306;SDS011;65117;44.120;3.068;2023-10-13T02:26:59;2.55;;;2.10;;
76306;SDS011;65117;44.120;3.068;2023-10-13T02:29:30;2.58;;;1.92;;
76306;SDS011;65117;44.120;3.068;2023-10-13T02:31:55;3.40;;;2.70;;
76306;SDS011;65117;44.120;3.068;2023-10-13T02:34:22;2.67;;;2.17;;
76306;SDS011;65117;44.120;3.068;2023-10-13T02:36:50;2.53;;;2.30;;
76306;SDS011;65117;44.120;3.068;2023-10-13T02:39:16;2.85;;;2.40;;
76306;SDS011;65117;44.120;3.068;2023-10-13T02:41:41;2.67;;;2.33;;
76306;SDS011;65117;44.120;3.068;2023-10-13T02:44:14;2.30;;;2.08;;
76306;SDS011;65117;44.120;3.068;2023-10-13T02:46:55;3.13;;;2.10;;
76306;SDS011;65117;44.120;3.068;2023-10-13T02:49:30;2.13;;;1.92;;
76306;SDS011;65117;44.120;3.068;2023-10-13T02:51:59;2.50;;;2.30;;
76306;SDS011;65117;44.120;3.068;2023-10-13T02:54:29;2.58;;;2.17;;
76306;SDS011;65117;44.120;3.068;2023-10-13T02:59:30;2.50;;;2.20;;
76306;SDS011;65117;44.120;3.068;2023-10-13T03:02:02;2.53;;;2.28;;
76306;SDS011;65117;44.120;3.068;2023-10-13T03:04:40;2.90;;;2.30;;
76306;SDS011;65117;44.120;3.068;2023-10-13T03:07:05;2.53;;;2.33;;
76306;SDS011;65117;44.120;3.068;2023-10-13T03:09:31;2.05;;;1.85;;
76306;SDS011;65117;44.120;3.068;2023-10-13T03:12:02;2.60;;;2.30;;
76306;SDS011;65117;44.120;3.068;2023-10-13T03:14:29;2.42;;;2.13;;
76306;SDS011;65117;44.120;3.068;2023-10-13T03:17:00;2.35;;;1.95;;
76306;SDS011;65117;44.120;3.068;2023-10-13T03:19:34;3.08;;;2.50;;
76306;SDS011;65117;44.120;3.068;2023-10-13T03:22:05;3.65;;;3.15;;
76306;SDS011;65117;44.120;3.068;2023-10-13T03:27:06;3.05;;;2.30;;
76306;SDS011;65117;44.120;3.068;2023-10-13T03:29:38;2.35;;;2.00;;
76306;SDS011;65117;44.120;3.068;2023-10-13T03:32:11;2.70;;;1.98;;
76306;SDS011;65117;44.120;3.068;2023-10-13T03:34:40;2.25;;;2.05;;
76306;SDS011;65117;44.120;3.068;2023-10-13T03:37:17;3.78;;;2.30;;
76306;SDS011;65117;44.120;3.068;2023-10-13T03:39:45;3.13;;;2.50;;
76306;SDS011;65117;44.120;3.068;2023-10-13T03:42:11;2.47;;;2.28;;
76306;SDS011;65117;44.120;3.068;2023-10-13T03:44:46;3.72;;;2.08;;
76306;SDS011;65117;44.120;3.068;2023-10-13T03:47:12;3.45;;;2.33;;
76306;SDS011;65117;44.120;3.068;2023-10-13T03:49:51;2.63;;;2.28;;
76306;SDS011;65117;44.120;3.068;2023-10-13T03:52:40;2.55;;;2.22;;
76306;SDS011;65117;44.120;3.068;2023-10-13T03:55:06;3.85;;;2.15;;
76306;SDS011;65117;44.120;3.068;2023-10-13T03:57:32;2.15;;;1.95;;
76306;SDS011;65117;44.120;3.068;2023-10-13T04:00:04;2.15;;;1.95;;
76306;SDS011;65117;44.120;3.068;2023-10-13T04:02:46;3.10;;;2.60;;
76306;SDS011;65117;44.120;3.068;2023-10-13T04:05:17;2.95;;;2.45;;
76306;SDS011;65117;44.120;3.068;2023-10-13T04:08:03;3.53;;;2.55;;
76306;SDS011;65117;44.120;3.068;2023-10-13T04:10:54;2.80;;;2.50;;
76306;SDS011;65117;44.120;3.068;2023-10-13T04:13:23;2.55;;;2.35;;
76306;SDS011;65117;44.120;3.068;2023-10-13T04:16:07;2.40;;;2.20;;
76306;SDS011;65117;44.120;3.068;2023-10-13T04:18:51;2.30;;;2.00;;
76306;SDS011;65117;44.120;3.068;2023-10-13T04:21:19;2.20;;;2.00;;
76306;SDS011;65117;44.120;3.068;2023-10-13T04:24:06;2.90;;;2.53;;
76306;SDS011;65117;44.120;3.068;2023-10-13T04:26:51;3.08;;;2.00;;
76306;SDS011;65117;44.120;3.068;2023-10-13T04:29:35;2.30;;;2.10;;
76306;SDS011;65117;44.120;3.068;2023-10-13T04:32:13;3.80;;;2.40;;
76306;SDS011;65117;44.120;3.068;2023-10-13T04:34:43;3.92;;;2.10;;
76306;SDS011;65117;44.120;3.068;2023-10-13T04:37:12;3.33;;;2.60;;
76306;SDS011;65117;44.120;3.068;2023-10-13T04:40:07;2.60;;;2.30;;
76306;SDS011;65117;44.120;3.068;2023-10-13T04:42:36;3.10;;;2.45;;
76306;SDS011;65117;44.120;3.068;2023-10-13T04:45:14;2.90;;;2.40;;
76306;SDS011;65117;44.120;3.068;2023-10-13T04:48:03;3.28;;;2.47;;
76306;SDS011;65117;44.120;3.068;2023-10-13T04:50:47;3.10;;;2.30;;
76306;SDS011;65117;44.120;3.068;2023-10-13T04:53:22;3.75;;;2.70;;
76306;SDS011;65117;44.120;3.068;2023-10-13T04:56:19;3.78;;;2.67;;
76306;SDS011;65117;44.120;3.068;2023-10-13T04:59:03;3.42;;;2.40;;
76306;SDS011;65117;44.120;3.068;2023-10-13T05:02:00;3.95;;;2.50;;
76306;SDS011;65117;44.120;3.068;2023-10-13T05:04:45;4.37;;;2.80;;
76306;SDS011;65117;44.120;3.068;2023-10-13T05:07:42;2.58;;;2.38;;
76306;SDS011;65117;44.120;3.068;2023-10-13T05:10:27;3.07;;;2.63;;
76306;SDS011;65117;44.120;3.068;2023-10-13T05:13:11;7.35;;;3.05;;
76306;SDS011;65117;44.120;3.068;2023-10-13T05:15:55;3.53;;;2.30;;
76306;SDS011;65117;44.120;3.068;2023-10-13T05:18:39;3.35;;;2.40;;
76306;SDS011;65117;44.120;3.068;2023-10-13T05:21:23;4.20;;;2.53;;
76306;SDS011;65117;44.120;3.068;2023-10-13T05:24:07;3.33;;;2.83;;
76306;SDS011;65117;44.120;3.068;2023-10-13T05:26:52;4.70;;;3.10;;
76306;SDS011;65117;44.120;3.068;2023-10-13T05:29:40;4.05;;;2.83;;
76306;SDS011;65117;44.120;3.068;2023-10-13T05:32:25;3.70;;;2.47;;
76306;SDS011;65117;44.120;3.068;2023-10-13T05:35:09;4.77;;;3.30;;
76306;SDS011;65117;44.120;3.068;2023-10-13T05:37:53;5.15;;;2.67;;
76306;SDS011;65117;44.120;3.068;2023-10-13T05:41:03;4.35;;;2.47;;
76306;SDS011;65117;44.120;3.068;2023-10-13T05:43:48;4.65;;;2.80;;
76306;SDS011;65117;44.120;3.068;2023-10-13T05:46:45;3.63;;;2.58;;
76306;SDS011;65117;44.120;3.068;2023-10-13T05:49:14;4.85;;;2.78;;
76306;SDS011;65117;44.120;3.068;2023-10-13T05:51:42;5.82;;;3.10;;
76306;SDS011;65117;44.120;3.068;2023-10-13T05:54:12;4.30;;;2.47;;
76306;SDS011;65117;44.120;3.068;2023-10-13T05:56:38;4.68;;;2.95;;
76306;SDS011;65117;44.120;3.068;2023-10-13T05:59:28;6.97;;;2.55;;
76306;SDS011;65117;44.120;3.068;2023-10-13T06:02:12;3.95;;;2.63;;
76306;SDS011;65117;44.120;3.068;2023-10-13T06:07:41;4.72;;;3.00;;
76306;SDS011;65117;44.120;3.068;2023-10-13T06:10:25;3.50;;;2.55;;
76306;SDS011;65117;44.120;3.068;2023-10-13T06:13:09;3.78;;;2.72;;
76306;SDS011;65117;44.120;3.068;2023-10-13T06:15:53;4.47;;;2.67;;
76306;SDS011;65117;44.120;3.068;2023-10-13T06:18:37;9.15;;;3.35;;
76306;SDS011;65117;44.120;3.068;2023-10-13T06:21:21;5.78;;;2.78;;
76306;SDS011;65117;44.120;3.068;2023-10-13T06:24:05;3.90;;;2.40;;
76306;SDS011;65117;44.120;3.068;2023-10-13T06:26:50;5.35;;;2.75;;
76306;SDS011;65117;44.120;3.068;2023-10-13T06:29:34;3.45;;;2.58;;
76306;SDS011;65117;44.120;3.068;2023-10-13T06:31:59;4.45;;;2.85;;
76306;SDS011;65117;44.120;3.068;2023-10-13T06:34:27;4.45;;;3.13;;
76306;SDS011;65117;44.120;3.068;2023-10-13T06:37:13;3.45;;;2.60;;
76306;SDS011;65117;44.120;3.068;2023-10-13T06:39:55;5.05;;;3.10;;
76306;SDS011;65117;44.120;3.068;2023-10-13T06:42:27;3.40;;;2.92;;
76306;SDS011;65117;44.120;3.068;2023-10-13T06:44:53;2.38;;;2.13;;
76306;SDS011;65117;44.120;3.068;2023-10-13T06:47:20;3.75;;;2.55;;
76306;SDS011;65117;44.120;3.068;2023-10-13T06:49:50;3.83;;;2.78;;
76306;SDS011;65117;44.120;3.068;2023-10-13T06:52:19;4.28;;;2.75;;
76306;SDS011;65117;44.120;3.068;2023-10-13T06:54:50;4.78;;;2.70;;
76306;SDS011;65117;44.120;3.068;2023-10-13T06:57:16;3.47;;;2.70;;
76306;SDS011;65117;44.120;3.068;2023-10-13T06:59:48;4.75;;;2.33;;
76306;SDS011;65117;44.120;3.068;2023-10-13T07:02:14;4.57;;;3.08;;
76306;SDS011;65117;44.120;3.068;2023-10-13T07:04:58;3.45;;;2.58;;
76306;SDS011;65117;44.120;3.068;2023-10-13T07:07:32;2.83;;;2.20;;
76306;SDS011;65117;44.120;3.068;2023-10-13T07:09:58;4.75;;;2.70;;
76306;SDS011;65117;44.120;3.068;2023-10-13T07:12:23;4.53;;;2.63;;
76306;SDS011;65117;44.120;3.068;2023-10-13T07:14:52;2.65;;;2.28;;
76306;SDS011;65117;44.120;3.068;2023-10-13T07:17:24;3.30;;;2.40;;
76306;SDS011;65117;44.120;3.068;2023-10-13T07:19:53;4.15;;;3.20;;
76306;SDS011;65117;44.120;3.068;2023-10-13T07:22:21;2.83;;;2.50;;
76306;SDS011;65117;44.120;3.068;2023-10-13T07:24:48;3.10;;;2.45;;
76306;SDS011;65117;44.120;3.068;2023-10-13T07:27:20;4.00;;;2.70;;
76306;SDS011;65117;44.120;3.068;2023-10-13T07:29:55;5.13;;;2.90;;
76306;SDS011;65117;44.120;3.068;2023-10-13T07:32:24;3.05;;;2.35;;
76306;SDS011;65117;44.120;3.068;2023-10-13T07:34:54;5.22;;;2.72;;
76306;SDS011;65117;44.120;3.068;2023-10-13T07:37:23;5.97;;;3.10;;
76306;SDS011;65117;44.120;3.068;2023-10-13T07:39:54;3.50;;;2.65;;
76306;SDS011;65117;44.120;3.068;2023-10-13T07:42:23;5.28;;;2.90;;
76306;SDS011;65117;44.120;3.068;2023-10-13T07:45:04;3.75;;;2.67;;
76306;SDS011;65117;44.120;3.068;2023-10-13T07:47:30;3.90;;;2.33;;
76306;SDS011;65117;44.120;3.068;2023-10-13T07:49:58;3.60;;;2.45;;
76306;SDS011;65117;44.120;3.068;2023-10-13T07:52:23;2.92;;;2.40;;
76306;SDS011;65117;44.120;3.068;2023-10-13T07:55:01;4.93;;;2.35;;
76306;SDS011;65117;44.120;3.068;2023-10-13T07:57:46;2.60;;;2.15;;
76306;SDS011;65117;44.120;3.068;2023-10-13T08:00:24;4.18;;;2.42;;
76306;SDS011;65117;44.120;3.068;2023-10-13T08:03:08;2.83;;;2.43;;
76306;SDS011;65117;44.120;3.068;2023-10-13T08:05:36;4.05;;;2.50;;
76306;SDS011;65117;44.120;3.068;2023-10-13T08:08:20;3.00;;;2.58;;
76306;SDS011;65117;44.120;3.068;2023-10-13T08:10:47;2.70;;;2.38;;
76306;SDS011;65117;44.120;3.068;2023-10-13T08:13:12;4.00;;;2.30;;
76306;SDS011;65117;44.120;3.068;2023-10-13T08:15:41;2.50;;;2.30;;
76306;SDS011;65117;44.120;3.068;2023-10-13T08:18:17;3.22;;;2.63;;
76306;SDS011;65117;44.120;3.068;2023-10-13T08:20:49;2.50;;;2.03;;
76306;SDS011;65117;44.120;3.068;2023-10-13T08:23:17;4.78;;;2.70;;
76306;SDS011;65117;44.120;3.068;2023-10-13T08:25:59;3.60;;;2.75;;
76306;SDS011;65117;44.120;3.068;2023-10-13T08:28:43;2.95;;;2.20;;
76306;SDS011;65117;44.120;3.068;2023-10-13T08:31:19;2.83;;;2.28;;
76306;SDS011;65117;44.120;3.068;2023-10-13T08:33:47;2.83;;;2.40;;
76306;SDS011;65117;44.120;3.068;2023-10-13T08:36:13;2.80;;;2.33;;
76306;SDS011;65117;44.120;3.068;2023-10-13T08:38:55;2.95;;;2.58;;
76306;SDS011;65117;44.120;3.068;2023-10-13T08:41:24;3.20;;;2.08;;
76306;SDS011;65117;44.120;3.068;2023-10-13T08:43:50;2.88;;;2.53;;
76306;SDS011;65117;44.120;3.068;2023-10-13T08:46:16;2.40;;;2.20;;
76306;SDS011;65117;44.120;3.068;2023-10-13T08:49:00;2.70;;;2.30;;
76306;SDS011;65117;44.120;3.068;2023-10-13T08:51:34;3.92;;;2.38;;
76306;SDS011;65117;44.120;3.068;2023-10-13T08:54:13;3.08;;;2.35;;
76306;SDS011;65117;44.120;3.068;2023-10-13T08:56:58;2.33;;;2.10;;
76306;SDS011;65117;44.120;3.068;2023-10-13T08:59:31;4.68;;;2.63;;
76306;SDS011;65117;44.120;3.068;2023-10-13T09:02:11;4.13;;;2.40;;
76306;SDS011;65117;44.120;3.068;2023-10-13T09:04:42;2.45;;;2.20;;
76306;SDS011;65117;44.120;3.068;2023-10-13T09:07:09;3.03;;;2.45;;
76306;SDS011;65117;44.120;3.068;2023-10-13T09:12:21;3.00;;;2.35;;
76306;SDS011;65117;44.120;3.068;2023-10-13T09:15:00;3.03;;;2.60;;
76306;SDS011;65117;44.120;3.068;2023-10-13T09:17:31;2.83;;;2.47;;
76306;SDS011;65117;44.120;3.068;2023-10-13T09:25:21;4.05;;;2.75;;
76306;SDS011;65117;44.120;3.068;2023-10-13T09:27:48;5.93;;;2.35;;
76306;SDS011;65117;44.120;3.068;2023-10-13T09:30:18;6.47;;;2.97;;
76306;SDS011;65117;44.120;3.068;2023-10-13T09:32:45;3.33;;;3.03;;
76306;SDS011;65117;44.120;3.068;2023-10-13T09:35:22;5.72;;;3.55;;
76306;SDS011;65117;44.120;3.068;2023-10-13T09:37:50;6.47;;;3.60;;
76306;SDS011;65117;44.120;3.068;2023-10-13T09:40:17;3.80;;;2.80;;
76306;SDS011;65117;44.120;3.068;2023-10-13T09:43:12;15.63;;;4.80;;
76306;SDS011;65117;44.120;3.068;2023-10-13T09:45:40;5.10;;;3.80;;
76306;SDS011;65117;44.120;3.068;2023-10-13T09:48:44;16.17;;;4.40;;
76306;SDS011;65117;44.120;3.068;2023-10-13T09:51:12;10.18;;;4.55;;
76306;SDS011;65117;44.120;3.068;2023-10-13T09:53:39;8.77;;;5.18;;
76306;SDS011;65117;44.120;3.068;2023-10-13T09:58:51;9.18;;;4.68;;
76306;SDS011;65117;44.120;3.068;2023-10-13T10:01:22;6.22;;;4.70;;
76306;SDS011;65117;44.120;3.068;2023-10-13T10:04:13;13.38;;;4.97;;
76306;SDS011;65117;44.120;3.068;2023-10-13T10:09:44;9.25;;;4.47;;
76306;SDS011;65117;44.120;3.068;2023-10-13T10:15:35;9.00;;;4.85;;
76306;SDS011;65117;44.120;3.068;2023-10-13T10:18:21;7.55;;;4.22;;
76306;SDS011;65117;44.120;3.068;2023-10-13T10:20:47;6.80;;;3.40;;
76306;SDS011;65117;44.120;3.068;2023-10-13T10:23:26;7.40;;;4.18;;
76306;SDS011;65117;44.120;3.068;2023-10-13T10:25:55;6.55;;;3.97;;
76306;SDS011;65117;44.120;3.068;2023-10-13T10:28:36;8.70;;;3.65;;
76306;SDS011;65117;44.120;3.068;2023-10-13T10:31:06;6.50;;;3.97;;
76306;SDS011;65117;44.120;3.068;2023-10-13T10:33:42;4.38;;;3.20;;
76306;SDS011;65117;44.120;3.068;2023-10-13T10:36:08;6.32;;;4.10;;
76306;SDS011;65117;44.120;3.068;2023-10-13T10:39:00;6.45;;;3.72;;
76306;SDS011;65117;44.120;3.068;2023-10-13T10:41:26;5.50;;;3.80;;
76306;SDS011;65117;44.120;3.068;2023-10-13T10:44:14;5.00;;;3.30;;
76306;SDS011;65117;44.120;3.068;2023-10-13T10:47:20;4.93;;;3.65;;
76306;SDS011;65117;44.120;3.068;2023-10-13T10:49:55;4.35;;;3.30;;
76306;SDS011;65117;44.120;3.068;2023-10-13T10:52:21;6.30;;;3.70;;
76306;SDS011;65117;44.120;3.068;2023-10-13T10:54:57;8.88;;;3.92;;
76306;SDS011;65117;44.120;3.068;2023-10-13T10:57:23;6.57;;;3.85;;
76306;SDS011;65117;44.120;3.068;2023-10-13T10:59:54;5.93;;;3.50;;
76306;SDS011;65117;44.120;3.068;2023-10-13T11:02:36;5.53;;;3.63;;
76306;SDS011;65117;44.120;3.068;2023-10-13T11:05:02;6.63;;;3.80;;
76306;SDS011;65117;44.120;3.068;2023-10-13T11:07:31;6.72;;;3.35;;
76306;SDS011;65117;44.120;3.068;2023-10-13T11:10:06;6.80;;;4.32;;
76306;SDS011;65117;44.120;3.068;2023-10-13T11:12:36;6.55;;;4.80;;
76306;SDS011;65117;44.120;3.068;2023-10-13T11:15:05;5.30;;;3.25;;
76306;SDS011;65117;44.120;3.068;2023-10-13T11:17:39;6.25;;;3.50;;
76306;SDS011;65117;44.120;3.068;2023-10-13T11:20:12;5.57;;;3.90;;
76306;SDS011;65117;44.120;3.068;2023-10-13T11:22:48;5.22;;;3.05;;
76306;SDS011;65117;44.120;3.068;2023-10-13T11:28:20;4.78;;;3.00;;
76306;SDS011;65117;44.120;3.068;2023-10-13T11:30:48;4.43;;;3.08;;
76306;SDS011;65117;44.120;3.068;2023-10-13T11:33:17;3.80;;;3.25;;
76306;SDS011;65117;44.120;3.068;2023-10-13T11:35:44;5.88;;;3.85;;
76306;SDS011;65117;44.120;3.068;2023-10-13T11:46:23;6.32;;;3.65;;
76306;SDS011;65117;44.120;3.068;2023-10-13T11:49:05;6.82;;;3.70;;
76306;SDS011;65117;44.120;3.068;2023-10-13T11:51:52;5.95;;;3.35;;
76306;SDS011;65117;44.120;3.068;2023-10-13T11:54:18;6.82;;;3.35;;
76306;SDS011;65117;44.120;3.068;2023-10-13T11:56:46;3.97;;;2.88;;
76306;SDS011;65117;44.120;3.068;2023-10-13T11:59:12;4.53;;;3.60;;
76306;SDS011;65117;44.120;3.068;2023-10-13T12:01:48;3.85;;;3.20;;
76306;SDS011;65117;44.120;3.068;2023-10-13T12:04:30;5.75;;;3.15;;
76306;SDS011;65117;44.120;3.068;2023-10-13T12:07:14;6.10;;;3.75;;
76306;SDS011;65117;44.120;3.068;2023-10-13T12:09:44;4.53;;;3.30;;
76306;SDS011;65117;44.120;3.068;2023-10-13T12:12:20;5.35;;;3.13;;
76306;SDS011;65117;44.120;3.068;2023-10-13T12:14:54;4.82;;;3.60;;
76306;SDS011;65117;44.120;3.068;2023-10-13T12:17:24;4.82;;;3.20;;
76306;SDS011;65117;44.120;3.068;2023-10-13T12:20:03;4.00;;;3.22;;
76306;SDS011;65117;44.120;3.068;2023-10-13T12:22:35;3.67;;;3.25;;
76306;SDS011;65117;44.120;3.068;2023-10-13T12:25:07;5.88;;;3.65;;
76306;SDS011;65117;44.120;3.068;2023-10-13T12:27:52;5.15;;;3.38;;
76306;SDS011;65117;44.120;3.068;2023-10-13T12:30:22;5.03;;;3.10;;
76306;SDS011;65117;44.120;3.068;2023-10-13T12:33:00;5.15;;;3.40;;
76306;SDS011;65117;44.120;3.068;2023-10-13T12:38:28;5.53;;;2.88;;
76306;SDS011;65117;44.120;3.068;2023-10-13T12:41:15;4.40;;;3.22;;
76306;SDS011;65117;44.120;3.068;2023-10-13T12:44:03;4.47;;;3.42;;
76306;SDS011;65117;44.120;3.068;2023-10-13T12:46:47;4.53;;;3.03;;
76306;SDS011;65117;44.120;3.068;2023-10-13T12:49:35;3.65;;;2.90;;
76306;SDS011;65117;44.120;3.068;2023-10-13T12:52:06;5.50;;;3.85;;
76306;SDS011;65117;44.120;3.068;2023-10-13T12:54:50;5.13;;;3.22;;
76306;SDS011;65117;44.120;3.068;2023-10-13T12:57:22;5.32;;;3.97;;
76306;SDS011;65117;44.120;3.068;2023-10-13T12:59:50;5.25;;;3.50;;
76306;SDS011;65117;44.120;3.068;2023-10-13T13:02:25;7.18;;;3.38;;
76306;SDS011;65117;44.120;3.068;2023-10-13T13:04:52;3.95;;;2.90;;
76306;SDS011;65117;44.120;3.068;2023-10-13T13:07:30;4.85;;;3.22;;
76306;SDS011;65117;44.120;3.068;2023-10-13T13:09:57;4.95;;;3.10;;
76306;SDS011;65117;44.120;3.068;2023-10-13T13:12:25;6.25;;;2.60;;
76306;SDS011;65117;44.120;3.068;2023-10-13T13:14:53;4.15;;;3.17;;
76306;SDS011;65117;44.120;3.068;2023-10-13T13:17:23;5.60;;;3.67;;
76306;SDS011;65117;44.120;3.068;2023-10-13T13:19:48;4.70;;;3.08;;
76306;SDS011;65117;44.120;3.068;2023-10-13T13:22:14;4.72;;;3.38;;
76306;SDS011;65117;44.120;3.068;2023-10-13T13:24:41;4.05;;;2.78;;
76306;SDS011;65117;44.120;3.068;2023-10-13T13:27:10;4.50;;;3.20;;
76306;SDS011;65117;44.120;3.068;2023-10-13T13:29:39;4.72;;;3.38;;
76306;SDS011;65117;44.120;3.068;2023-10-13T13:32:07;5.38;;;3.20;;
76306;SDS011;65117;44.120;3.068;2023-10-13T13:34:53;6.63;;;3.67;;
76306;SDS011;65117;44.120;3.068;2023-10-13T13:37:48;4.78;;;3.17;;
76306;SDS011;65117;44.120;3.068;2023-10-13T13:40:14;4.53;;;3.22;;
76306;SDS011;65117;44.120;3.068;2023-10-13T13:42:43;4.22;;;2.78;;
76306;SDS011;65117;44.120;3.068;2023-10-13T13:45:16;4.40;;;3.05;;
76306;SDS011;65117;44.120;3.068;2023-10-13T13:47:47;4.70;;;3.10;;
76306;SDS011;65117;44.120;3.068;2023-10-13T13:50:19;5.93;;;3.47;;
76306;SDS011;65117;44.120;3.068;2023-10-13T13:52:49;5.65;;;3.03;;
76306;SDS011;65117;44.120;3.068;2023-10-13T13:55:17;5.07;;;2.90;;
76306;SDS011;65117;44.120;3.068;2023-10-13T13:57:43;4.70;;;3.35;;
76306;SDS011;65117;44.120;3.068;2023-10-13T14:00:10;4.68;;;2.95;;
76306;SDS011;65117;44.120;3.068;2023-10-13T14:02:43;4.38;;;2.92;;
76306;SDS011;65117;44.120;3.068;2023-10-13T14:05:14;4.22;;;3.15;;
76306;SDS011;65117;44.120;3.068;2023-10-13T14:07:44;4.40;;;3.15;;
76306;SDS011;65117;44.120;3.068;2023-10-13T14:10:16;3.22;;;2.90;;
76306;SDS011;65117;44.120;3.068;2023-10-13T14:12:56;4.38;;;2.70;;
76306;SDS011;65117;44.120;3.068;2023-10-13T14:15:31;5.30;;;3.63;;
76306;SDS011;65117;44.120;3.068;2023-10-13T14:18:05;4.63;;;2.80;;
76306;SDS011;65117;44.120;3.068;2023-10-13T14:20:32;5.00;;;3.88;;
76306;SDS011;65117;44.120;3.068;2023-10-13T14:23:04;6.28;;;3.58;;
76306;SDS011;65117;44.120;3.068;2023-10-13T14:25:32;3.90;;;3.03;;
76306;SDS011;65117;44.120;3.068;2023-10-13T14:28:02;4.28;;;3.15;;
76306;SDS011;65117;44.120;3.068;2023-10-13T14:30:32;4.22;;;3.20;;
76306;SDS011;65117;44.120;3.068;2023-10-13T14:32:58;5.45;;;3.08;;
76306;SDS011;65117;44.120;3.068;2023-10-13T14:35:24;4.18;;;2.80;;
76306;SDS011;65117;44.120;3.068;2023-10-13T14:37:51;3.80;;;2.92;;
76306;SDS011;65117;44.120;3.068;2023-10-13T14:40:17;3.45;;;2.95;;
76306;SDS011;65117;44.120;3.068;2023-10-13T14:42:46;3.47;;;2.90;;
76306;SDS011;65117;44.120;3.068;2023-10-13T14:45:12;4.35;;;3.30;;
76306;SDS011;65117;44.120;3.068;2023-10-13T14:47:42;4.55;;;2.72;;
76306;SDS011;65117;44.120;3.068;2023-10-13T14:50:09;3.08;;;2.67;;
76306;SDS011;65117;44.120;3.068;2023-10-13T14:52:47;4.18;;;3.03;;
76306;SDS011;65117;44.120;3.068;2023-10-13T14:55:13;3.95;;;2.88;;
76306;SDS011;65117;44.120;3.068;2023-10-13T14:57:45;5.07;;;3.20;;
76306;SDS011;65117;44.120;3.068;2023-10-13T15:00:12;4.47;;;2.70;;
76306;SDS011;65117;44.120;3.068;2023-10-13T15:02:39;6.53;;;2.72;;
76306;SDS011;65117;44.120;3.068;2023-10-13T15:05:08;4.15;;;2.78;;
76306;SDS011;65117;44.120;3.068;2023-10-13T15:07:41;3.42;;;2.80;;
76306;SDS011;65117;44.120;3.068;2023-10-13T15:10:10;4.05;;;2.90;;
76306;SDS011;65117;44.120;3.068;2023-10-13T15:12:40;4.05;;;2.95;;
76306;SDS011;65117;44.120;3.068;2023-10-13T15:15:12;4.40;;;2.75;;
76306;SDS011;65117;44.120;3.068;2023-10-13T15:17:44;3.80;;;3.05;;
76306;SDS011;65117;44.120;3.068;2023-10-13T15:20:10;4.80;;;3.20;;
76306;SDS011;65117;44.120;3.068;2023-10-13T15:22:44;3.35;;;2.60;;
76306;SDS011;65117;44.120;3.068;2023-10-13T15:25:12;5.20;;;3.15;;
76306;SDS011;65117;44.120;3.068;2023-10-13T15:27:57;6.80;;;3.10;;
76306;SDS011;65117;44.120;3.068;2023-10-13T15:30:27;3.97;;;2.92;;
76306;SDS011;65117;44.120;3.068;2023-10-13T15:33:07;6.78;;;2.85;;
76306;SDS011;65117;44.120;3.068;2023-10-13T15:35:33;5.95;;;3.08;;
76306;SDS011;65117;44.120;3.068;2023-10-13T15:37:58;6.97;;;3.42;;
76306;SDS011;65117;44.120;3.068;2023-10-13T15:40:25;6.30;;;3.13;;
76306;SDS011;65117;44.120;3.068;2023-10-13T15:42:52;10.55;;;4.35;;
76306;SDS011;65117;44.120;3.068;2023-10-13T15:45:24;9.27;;;3.47;;
76306;SDS011;65117;44.120;3.068;2023-10-13T15:47:57;9.23;;;4.05;;
76306;SDS011;65117;44.120;3.068;2023-10-13T15:50:23;7.35;;;3.70;;
76306;SDS011;65117;44.120;3.068;2023-10-13T15:52:48;8.20;;;4.00;;
76306;SDS011;65117;44.120;3.068;2023-10-13T15:55:15;9.98;;;3.75;;
76306;SDS011;65117;44.120;3.068;2023-10-13T15:57:42;9.80;;;3.88;;
76306;SDS011;65117;44.120;3.068;2023-10-13T16:00:09;6.57;;;4.35;;
76306;SDS011;65117;44.120;3.068;2023-10-13T16:02:56;11.43;;;4.47;;
76306;SDS011;65117;44.120;3.068;2023-10-13T16:05:29;8.80;;;3.78;;